Hestrud (Nord, France) - 208 m
Donnes mto: Actuelle samedi, 15/08/2020 20:44
Date Horaire Temp Out Temp. 4 Temp. E. min Temp. E. max Temp. Sol 1 Hum Out Hum. Sol 1 Press Rain Wind Dir Dir Solar Ev.Tr. UV Hi Solar Rad Dew Point Windchill Wind (Gust)
15/08/2020 20:44 20,9 C 21,1 C 20,9 C 20,9 C 21,7 C 90 % 200 cb 1012,5 hPa 0,0 mm 0,0 km/h (0 Bft) N 0 0 min 0,025 mm 0,0 UV-I 5 W/m 19,2 C 20,9 C 0,0 km/h (0 Bft)
15/08/2020 19:44 21,8 C 22,8 C 21,8 C 21,8 C 22,8 C 88 % 200 cb 1012,5 hPa 0,6 mm 0,0 km/h (0 Bft) N 0 0 min 0,051 mm 0,0 UV-I 42 W/m 19,7 C 21,8 C 0,0 km/h (0 Bft)
15/08/2020 18:44 23,6 C 23,9 C 23,6 C 23,6 C 24,4 C 73 % 200 cb 1012,8 hPa 0,0 mm 8,0 km/h (2 Bft) SO 225 0 min 0,152 mm 0,0 UV-I 30 W/m 18,5 C 23,1 C 9,7 km/h (2 Bft)
15/08/2020 17:44 26,2 C 28,9 C 26,2 C 26,2 C 26,1 C 56 % 200 cb 1012,5 hPa 0,0 mm 1,6 km/h (1 Bft) N-NE 22 45 min 0,178 mm 0,5 UV-I 63 W/m 16,7 C 26,2 C 3,2 km/h (1 Bft)
15/08/2020 16:44 25,8 C 34,4 C 25,8 C 25,8 C 26,1 C 59 % 200 cb 1012,8 hPa 0,0 mm 0,0 km/h (0 Bft) E 90 32 min 0,178 mm 2,2 UV-I 628 W/m 17,2 C 25,8 C 1,6 km/h (1 Bft)
15/08/2020 15:44 25,8 C 32,8 C 25,8 C 25,9 C 26,7 C 59 % 200 cb 1013,3 hPa 0,0 mm 3,2 km/h (1 Bft) S-SO 202 49 min 0,279 mm 2,2 UV-I 182 W/m 17,2 C 25,8 C 8,0 km/h (2 Bft)
15/08/2020 14:44 26,2 C 32,8 C 26,2 C 26,2 C 27,2 C 59 % 200 cb 1013,7 hPa 0,0 mm 8,0 km/h (2 Bft) O 270 60 min 0,508 mm 2,1 UV-I 214 W/m 17,5 C 25,9 C 11,3 km/h (2 Bft)
15/08/2020 13:44 27,3 C 40,0 C 27,3 C 27,3 C 28,3 C 58 % 200 cb 1014,0 hPa 0,0 mm 9,7 km/h (2 Bft) SO 225 60 min 0,229 mm 5,5 UV-I 795 W/m 18,3 C 26,7 C 11,3 km/h (2 Bft)
15/08/2020 12:44 24,1 C 30,0 C 24,1 C 24,1 C 25,0 C 70 % 200 cb 1014,2 hPa 0,0 mm 6,4 km/h (2 Bft) O-SO 247 60 min 0,356 mm 2,8 UV-I 366 W/m 18,3 C 24,1 C 11,3 km/h (2 Bft)
15/08/2020 11:44 24,9 C 30,0 C 24,8 C 24,9 C 25,6 C 67 % 200 cb 1014,3 hPa 0,0 mm 4,8 km/h (1 Bft) NO 315 60 min 0,254 mm 2,9 UV-I 328 W/m 18,3 C 24,9 C 8,0 km/h (2 Bft)
15/08/2020 10:44 22,4 C 30,6 C 22,4 C 22,4 C 23,3 C 80 % 200 cb 1014,4 hPa 0,0 mm 6,4 km/h (2 Bft) SO 225 58 min 0,127 mm 1,8 UV-I 146 W/m 18,8 C 22,4 C 8,0 km/h (2 Bft)
15/08/2020 09:44 18,8 C 27,2 C 18,8 C 18,8 C 20,0 C 98 % 200 cb 1014,6 hPa 0,0 mm 0,0 km/h (0 Bft) SO 225 44 min 0,051 mm 1,2 UV-I 237 W/m 18,5 C 18,8 C 1,6 km/h (1 Bft)
15/08/2020 08:44 16,8 C 20,0 C 16,7 C 16,8 C 17,8 C 98 % 200 cb 1014,5 hPa 0,0 mm 0,0 km/h (0 Bft) N 0 0 min 0,025 mm 0,5 UV-I 91 W/m 16,5 C 16,8 C 0,0 km/h (0 Bft)
15/08/2020 07:44 15,3 C 17,8 C 15,3 C 15,3 C 16,7 C 97 % 200 cb 1014,5 hPa 0,0 mm 0,0 km/h (0 Bft) N 0 0 min 0,000 mm 0,0 UV-I 44 W/m 14,8 C 15,3 C 0,0 km/h (0 Bft)
15/08/2020 06:44 14,7 C 16,1 C 14,7 C 14,7 C 16,1 C 97 % 200 cb 1014,2 hPa 0,0 mm 0,0 km/h (0 Bft) N 0 0 min 0,000 mm 0,0 UV-I 9 W/m 14,2 C 14,7 C 0,0 km/h (0 Bft)
15/08/2020 05:44 14,8 C 16,1 C 14,8 C 14,8 C 16,1 C 97 % 200 cb 1014,0 hPa 0,0 mm 0,0 km/h (0 Bft) N 0 0 min 0,000 mm 0,0 UV-I 0 W/m 14,3 C 14,8 C 0,0 km/h (0 Bft)
15/08/2020 04:44 14,7 C 16,1 C 14,7 C 14,8 C 16,1 C 96 % 200 cb 1014,0 hPa 0,0 mm 0,0 km/h (0 Bft) N 0 0 min 0,000 mm 0,0 UV-I 0 W/m 14,1 C 14,7 C 0,0 km/h (0 Bft)
15/08/2020 03:44 15,1 C 15,6 C 15,1 C 15,1 C 16,1 C 95 % 200 cb 1013,9 hPa 0,0 mm 1,6 km/h (1 Bft) O 270 0 min 0,000 mm 0,0 UV-I 0 W/m 14,3 C 15,1 C 3,2 km/h (1 Bft)
15/08/2020 02:44 15,2 C 16,1 C 15,2 C 15,2 C 16,1 C 94 % 200 cb 1014,1 hPa 0,0 mm 0,0 km/h (0 Bft) N 0 0 min 0,000 mm 0,0 UV-I 0 W/m 14,2 C 15,2 C 0,0 km/h (0 Bft)
15/08/2020 01:44 15,7 C 16,1 C 15,7 C 15,7 C 16,7 C 94 % 200 cb 1014,5 hPa 0,0 mm 0,0 km/h (0 Bft) N 0 0 min 0,000 mm 0,0 UV-I 0 W/m 14,7 C 15,7 C 0,0 km/h (0 Bft)
15/08/2020 00:44 16,4 C 16,7 C 16,4 C 16,4 C 17,2 C 93 % 200 cb 1014,4 hPa 0,0 mm 0,0 km/h (0 Bft) N 0 0 min 0,000 mm 0,0 UV-I 0 W/m 15,3 C 16,4 C 0,0 km/h (0 Bft)
14/08/2020 23:44 17,1 C 17,8 C 17,1 C 17,1 C 18,3 C 91 % 200 cb 1014,3 hPa 0,0 mm 0,0 km/h (0 Bft) N 0 0 min 0,000 mm 0,0 UV-I 0 W/m 15,6 C 17,1 C 0,0 km/h (0 Bft)
14/08/2020 22:44 18,3 C 18,3 C 18,3 C 18,3 C 18,9 C 87 % 200 cb 1014,0 hPa 0,0 mm 0,0 km/h (0 Bft) N 0 0 min 0,000 mm 0,0 UV-I 0 W/m 16,1 C 18,3 C 0,0 km/h (0 Bft)
14/08/2020 21:44 19,9 C 19,4 C 19,9 C 19,9 C 20,0 C 83 % 200 cb 1013,7 hPa 0,0 mm 0,0 km/h (0 Bft) N-NO 337 0 min 0,025 mm 0,0 UV-I 0 W/m 16,9 C 19,9 C 1,6 km/h (1 Bft)
14/08/2020 21:00 21,1 C 20,6 C 21,1 C 21,1 C 21,1 C 81 % 200 cb 1013,4 hPa 0,0 mm 3,2 km/h (1 Bft) O 270 0 min 0,025 mm 0,0 UV-I 0 W/m 17,7 C 21,1 C 6,4 km/h (2 Bft)
_ Min-Heure 04:35 03:34 04:35 04:42 04:20 17:22 21:00 17:56 - 21:01 - - - - - - 04:36 04:36 21:33
Minimum _ 14,7 C 15,6 C 14,7 C 14,7 C 15,6 C 55 % 200 cb 1012,4 hPa - 0,0 km/h (0 Bft) - - - - - - 14,1 C 14,7 C 0,0 km/h (0 Bft)
_ Max-Heure 13:43 14:03 13:44 13:43 13:53 09:07 21:00 09:11 19:08 13:50 - - 09:01 14:00 14:01 14:03 19:42 13:45 13:37
Maximum _ 27,3 C 43,3 C 27,3 C 27,3 C 28,9 C 99 % 200 cb 1014,7 hPa 0,2 mm 14,5 km/h
O (3 Bft)
- - 1 min 0,508 mm 5,8 UV-I 963 W/m 19,7 C 27,3 C 20,9 km/h
O-SO (4 Bft)
Moyenne _ 20,1 C 23,3 C 20,1 C 20,2 C 21,0 C 82 % 200 cb 1013,8 hPa #0,6 mm 2,5 km/h (1 Bft) O-SO - #7:48 h #2,413 mm 2,5 UV-I 164 W/m 16,7 C 20,1 C 4,1 km/h (1 Bft)